Homer, AK

2:53 PM AKDT on July 23, 2016 (GMT -0800)
RAWS | | Change Station

Elev 853 ft 59.75 °N, 151.20 °W | Updated 59 minutes ago

Overcast
Overcast
59.0 °F
Feels Like 59.0 °F
N
7.0
Wind Variable Wind from SSW
Gusts 0.0 mph

Today
High -- | Low -- °F
--% Chance of Precip.
Yesterday
High -- | Low -- °F
Precip. -- in
Pressure 29.65 in
Visibility 10.0 miles
Clouds Overcast 7000 ft
Dew Point 53.0 °F
Humidity 81%
Rainfall in
Snow Depth Not available.
5:28 AM 10:52 PM
Waning Gibbous, 82% visible
METAR PAHO 232153Z 23014KT 10SM OVC070 16/11 A2965 RMK AO2 SLP040 T01560111 $
Pressure 29.65 in
Visibility 10.0 miles
Clouds Overcast 7000 ft
Dew Point 53.0 °F
Humidity 81%
Rainfall in
Snow Depth Not available.
5:28 AM 10:52 PM
Waning Gibbous, 82% visible
METAR PAHO 232153Z 23014KT 10SM OVC070 16/11 A2965 RMK AO2 SLP040 T01560111 $

10-Day Weather Forecast

Almanac

Astronomy

Jul. 23, 2016 Rise Set
Actual Time
Civil Twilight
Nautical Twilight
Astronomical Twilight
Moon
Length of Visible Light
Length of Day
Tomorrow will be .
, % of the Moon is Illuminated

Today's Extremes

State Highs State Lows

Community

WunderPhotos

Upload Photos

1,926,950 photos uploaded!

WunderBlog® & News

Nearby

Air Quality

  Air Quality AQ Index Pollutant
Not available.

Snow Depth

Station Depth Elevation

Earthquake Activity

City Distance Mag. Time & Date
Minimum magnitude displayed is 2.5.

Coastal Water Temperatures

Place Temperature

Stations

Nearby Weather Stations

Station Location Temp. Windchill Dew Point Humidity Wind Precip. Elev Updated Type
                   

Watches & Warnings

There are currently no watches in effect.